sensor_id;sensor_type;location;lat;lon;timestamp;P1;durP1;ratioP1;P2;durP2;ratioP2
78406;SDS011;67692;51.074;-1.790;2023-04-24T00:00:01;14.15;;;7.28;;
78406;SDS011;67692;51.074;-1.790;2023-04-24T00:02:30;16.85;;;7.88;;
78406;SDS011;67692;51.074;-1.790;2023-04-24T00:04:58;16.42;;;7.25;;
78406;SDS011;67692;51.074;-1.790;2023-04-24T00:07:29;14.85;;;7.28;;
78406;SDS011;67692;51.074;-1.790;2023-04-24T00:09:56;14.52;;;7.20;;
78406;SDS011;67692;51.074;-1.790;2023-04-24T00:12:25;16.77;;;7.57;;
78406;SDS011;67692;51.074;-1.790;2023-04-24T00:14:53;18.95;;;8.82;;
78406;SDS011;67692;51.074;-1.790;2023-04-24T00:17:20;15.48;;;7.43;;
78406;SDS011;67692;51.074;-1.790;2023-04-24T00:19:47;16.77;;;7.93;;
78406;SDS011;67692;51.074;-1.790;2023-04-24T00:22:13;15.40;;;6.67;;
78406;SDS011;67692;51.074;-1.790;2023-04-24T00:24:41;17.77;;;8.13;;
78406;SDS011;67692;51.074;-1.790;2023-04-24T00:27:08;16.50;;;7.00;;
78406;SDS011;67692;51.074;-1.790;2023-04-24T00:29:35;15.38;;;6.85;;
78406;SDS011;67692;51.074;-1.790;2023-04-24T00:32:01;18.23;;;7.28;;
78406;SDS011;67692;51.074;-1.790;2023-04-24T00:34:28;16.77;;;7.15;;
78406;SDS011;67692;51.074;-1.790;2023-04-24T00:36:55;14.93;;;7.38;;
78406;SDS011;67692;51.074;-1.790;2023-04-24T00:39:21;16.02;;;7.93;;
78406;SDS011;67692;51.074;-1.790;2023-04-24T00:41:50;18.33;;;8.25;;
78406;SDS011;67692;51.074;-1.790;2023-04-24T00:44:17;17.25;;;7.18;;
78406;SDS011;67692;51.074;-1.790;2023-04-24T00:46:44;15.57;;;6.97;;
78406;SDS011;67692;51.074;-1.790;2023-04-24T00:49:12;15.13;;;7.47;;
78406;SDS011;67692;51.074;-1.790;2023-04-24T00:51:40;18.27;;;8.02;;
78406;SDS011;67692;51.074;-1.790;2023-04-24T00:56:36;16.10;;;7.00;;
78406;SDS011;67692;51.074;-1.790;2023-04-24T00:59:05;13.52;;;6.93;;
78406;SDS011;67692;51.074;-1.790;2023-04-24T01:01:32;14.98;;;7.38;;
78406;SDS011;67692;51.074;-1.790;2023-04-24T01:04:00;16.95;;;7.93;;
78406;SDS011;67692;51.074;-1.790;2023-04-24T01:06:28;14.43;;;7.25;;
78406;SDS011;67692;51.074;-1.790;2023-04-24T01:08:56;14.93;;;7.00;;
78406;SDS011;67692;51.074;-1.790;2023-04-24T01:11:24;13.77;;;6.78;;
78406;SDS011;67692;51.074;-1.790;2023-04-24T01:13:51;15.10;;;7.20;;
78406;SDS011;67692;51.074;-1.790;2023-04-24T01:16:19;13.65;;;6.68;;
78406;SDS011;67692;51.074;-1.790;2023-04-24T01:18:46;13.07;;;6.28;;
78406;SDS011;67692;51.074;-1.790;2023-04-24T01:21:13;14.68;;;6.40;;
78406;SDS011;67692;51.074;-1.790;2023-04-24T01:23:43;13.23;;;6.07;;
78406;SDS011;67692;51.074;-1.790;2023-04-24T01:26:09;16.17;;;6.22;;
78406;SDS011;67692;51.074;-1.790;2023-04-24T01:28:36;18.35;;;6.53;;
78406;SDS011;67692;51.074;-1.790;2023-04-24T01:31:04;12.52;;;6.50;;
78406;SDS011;67692;51.074;-1.790;2023-04-24T01:33:30;13.35;;;5.90;;
78406;SDS011;67692;51.074;-1.790;2023-04-24T01:35:57;11.60;;;6.28;;
78406;SDS011;67692;51.074;-1.790;2023-04-24T01:38:24;13.35;;;6.03;;
78406;SDS011;67692;51.074;-1.790;2023-04-24T01:40:52;12.90;;;6.10;;
78406;SDS011;67692;51.074;-1.790;2023-04-24T01:43:19;13.05;;;6.07;;
78406;SDS011;67692;51.074;-1.790;2023-04-24T01:45:46;14.60;;;6.47;;
78406;SDS011;67692;51.074;-1.790;2023-04-24T01:48:13;17.05;;;7.30;;
78406;SDS011;67692;51.074;-1.790;2023-04-24T01:50:40;15.00;;;6.38;;
78406;SDS011;67692;51.074;-1.790;2023-04-24T01:53:06;19.40;;;7.20;;
78406;SDS011;67692;51.074;-1.790;2023-04-24T01:55:33;13.10;;;6.20;;
78406;SDS011;67692;51.074;-1.790;2023-04-24T01:58:01;12.65;;;5.22;;
78406;SDS011;67692;51.074;-1.790;2023-04-24T02:00:28;13.25;;;6.15;;
78406;SDS011;67692;51.074;-1.790;2023-04-24T02:02:55;14.80;;;6.07;;
78406;SDS011;67692;51.074;-1.790;2023-04-24T02:05:21;15.38;;;5.85;;
78406;SDS011;67692;51.074;-1.790;2023-04-24T02:07:48;15.50;;;6.47;;
78406;SDS011;67692;51.074;-1.790;2023-04-24T02:10:14;14.05;;;5.95;;
78406;SDS011;67692;51.074;-1.790;2023-04-24T02:12:41;16.35;;;6.78;;
78406;SDS011;67692;51.074;-1.790;2023-04-24T02:15:10;16.35;;;6.32;;
78406;SDS011;67692;51.074;-1.790;2023-04-24T02:17:36;14.80;;;6.53;;
78406;SDS011;67692;51.074;-1.790;2023-04-24T02:20:03;13.18;;;6.07;;
78406;SDS011;67692;51.074;-1.790;2023-04-24T02:22:30;17.00;;;5.90;;
78406;SDS011;67692;51.074;-1.790;2023-04-24T02:24:57;16.45;;;6.43;;
78406;SDS011;67692;51.074;-1.790;2023-04-24T02:27:24;15.55;;;6.22;;
78406;SDS011;67692;51.074;-1.790;2023-04-24T02:29:51;14.57;;;5.82;;
78406;SDS011;67692;51.074;-1.790;2023-04-24T02:32:19;13.82;;;5.40;;
78406;SDS011;67692;51.074;-1.790;2023-04-24T02:34:45;14.23;;;5.95;;
78406;SDS011;67692;51.074;-1.790;2023-04-24T02:37:12;12.25;;;5.68;;
78406;SDS011;67692;51.074;-1.790;2023-04-24T02:39:39;12.73;;;5.53;;
78406;SDS011;67692;51.074;-1.790;2023-04-24T02:42:05;14.70;;;6.40;;
78406;SDS011;67692;51.074;-1.790;2023-04-24T02:44:33;14.30;;;5.85;;
78406;SDS011;67692;51.074;-1.790;2023-04-24T02:47:00;12.50;;;6.05;;
78406;SDS011;67692;51.074;-1.790;2023-04-24T02:49:28;13.95;;;6.05;;
78406;SDS011;67692;51.074;-1.790;2023-04-24T02:51:54;16.60;;;6.93;;
78406;SDS011;67692;51.074;-1.790;2023-04-24T02:54:21;11.77;;;5.50;;
78406;SDS011;67692;51.074;-1.790;2023-04-24T02:56:47;13.60;;;6.22;;
78406;SDS011;67692;51.074;-1.790;2023-04-24T02:59:14;15.10;;;6.65;;
78406;SDS011;67692;51.074;-1.790;2023-04-24T03:01:41;13.77;;;6.40;;
78406;SDS011;67692;51.074;-1.790;2023-04-24T03:04:07;11.38;;;5.72;;
78406;SDS011;67692;51.074;-1.790;2023-04-24T03:06:36;13.88;;;5.95;;
78406;SDS011;67692;51.074;-1.790;2023-04-24T03:09:03;12.07;;;5.70;;
78406;SDS011;67692;51.074;-1.790;2023-04-24T03:11:30;10.25;;;5.35;;
78406;SDS011;67692;51.074;-1.790;2023-04-24T03:13:56;12.05;;;6.03;;
78406;SDS011;67692;51.074;-1.790;2023-04-24T03:16:23;12.05;;;5.70;;
78406;SDS011;67692;51.074;-1.790;2023-04-24T03:18:50;18.13;;;5.85;;
78406;SDS011;67692;51.074;-1.790;2023-04-24T03:21:17;15.15;;;6.05;;
78406;SDS011;67692;51.074;-1.790;2023-04-24T03:23:45;13.88;;;5.85;;
78406;SDS011;67692;51.074;-1.790;2023-04-24T03:26:11;11.88;;;5.80;;
78406;SDS011;67692;51.074;-1.790;2023-04-24T03:28:38;15.38;;;6.32;;
78406;SDS011;67692;51.074;-1.790;2023-04-24T03:31:04;12.73;;;5.75;;
78406;SDS011;67692;51.074;-1.790;2023-04-24T03:33:31;12.68;;;6.30;;
78406;SDS011;67692;51.074;-1.790;2023-04-24T03:35:58;14.90;;;6.85;;
78406;SDS011;67692;51.074;-1.790;2023-04-24T03:38:24;11.95;;;5.65;;
78406;SDS011;67692;51.074;-1.790;2023-04-24T03:40:52;11.32;;;5.68;;
78406;SDS011;67692;51.074;-1.790;2023-04-24T03:43:19;16.75;;;6.03;;
78406;SDS011;67692;51.074;-1.790;2023-04-24T03:45:46;12.40;;;5.70;;
78406;SDS011;67692;51.074;-1.790;2023-04-24T03:48:12;11.60;;;5.82;;
78406;SDS011;67692;51.074;-1.790;2023-04-24T03:50:39;13.95;;;5.82;;
78406;SDS011;67692;51.074;-1.790;2023-04-24T03:53:06;15.50;;;6.75;;
78406;SDS011;67692;51.074;-1.790;2023-04-24T03:55:33;15.10;;;5.93;;
78406;SDS011;67692;51.074;-1.790;2023-04-24T03:58:01;12.45;;;5.78;;
78406;SDS011;67692;51.074;-1.790;2023-04-24T04:00:27;12.32;;;5.53;;
78406;SDS011;67692;51.074;-1.790;2023-04-24T04:02:58;13.88;;;6.13;;
78406;SDS011;67692;51.074;-1.790;2023-04-24T04:05:24;13.40;;;6.25;;
78406;SDS011;67692;51.074;-1.790;2023-04-24T04:07:51;13.48;;;5.93;;
78406;SDS011;67692;51.074;-1.790;2023-04-24T04:10:17;11.60;;;5.68;;
78406;SDS011;67692;51.074;-1.790;2023-04-24T04:12:44;12.38;;;5.57;;
78406;SDS011;67692;51.074;-1.790;2023-04-24T04:15:12;11.55;;;5.45;;
78406;SDS011;67692;51.074;-1.790;2023-04-24T04:17:39;13.00;;;5.75;;
78406;SDS011;67692;51.074;-1.790;2023-04-24T04:20:06;12.23;;;5.45;;
78406;SDS011;67692;51.074;-1.790;2023-04-24T04:22:34;13.20;;;5.43;;
78406;SDS011;67692;51.074;-1.790;2023-04-24T04:25:02;13.20;;;5.75;;
78406;SDS011;67692;51.074;-1.790;2023-04-24T04:27:29;13.75;;;5.65;;
78406;SDS011;67692;51.074;-1.790;2023-04-24T04:29:57;13.80;;;5.97;;
78406;SDS011;67692;51.074;-1.790;2023-04-24T04:32:25;13.68;;;6.25;;
78406;SDS011;67692;51.074;-1.790;2023-04-24T04:34:52;14.68;;;5.78;;
78406;SDS011;67692;51.074;-1.790;2023-04-24T04:37:19;12.20;;;5.63;;
78406;SDS011;67692;51.074;-1.790;2023-04-24T04:39:46;13.23;;;5.55;;
78406;SDS011;67692;51.074;-1.790;2023-04-24T04:42:12;12.20;;;5.63;;
78406;SDS011;67692;51.074;-1.790;2023-04-24T04:44:40;14.05;;;6.40;;
78406;SDS011;67692;51.074;-1.790;2023-04-24T04:47:07;14.30;;;5.65;;
78406;SDS011;67692;51.074;-1.790;2023-04-24T04:49:37;11.23;;;6.03;;
78406;SDS011;67692;51.074;-1.790;2023-04-24T04:52:03;10.68;;;5.18;;
78406;SDS011;67692;51.074;-1.790;2023-04-24T04:54:30;13.35;;;5.93;;
78406;SDS011;67692;51.074;-1.790;2023-04-24T04:56:57;16.90;;;5.90;;
78406;SDS011;67692;51.074;-1.790;2023-04-24T04:59:24;15.13;;;6.38;;
78406;SDS011;67692;51.074;-1.790;2023-04-24T05:01:50;12.73;;;6.13;;
78406;SDS011;67692;51.074;-1.790;2023-04-24T05:04:17;12.45;;;5.97;;
78406;SDS011;67692;51.074;-1.790;2023-04-24T05:06:45;12.57;;;6.47;;
78406;SDS011;67692;51.074;-1.790;2023-04-24T05:09:12;14.75;;;6.30;;
78406;SDS011;67692;51.074;-1.790;2023-04-24T05:11:38;13.55;;;6.15;;
78406;SDS011;67692;51.074;-1.790;2023-04-24T05:14:05;11.30;;;5.88;;
78406;SDS011;67692;51.074;-1.790;2023-04-24T05:16:32;14.27;;;6.15;;
78406;SDS011;67692;51.074;-1.790;2023-04-24T05:18:58;16.30;;;5.82;;
78406;SDS011;67692;51.074;-1.790;2023-04-24T05:21:25;12.57;;;6.28;;
78406;SDS011;67692;51.074;-1.790;2023-04-24T05:23:53;12.50;;;5.68;;
78406;SDS011;67692;51.074;-1.790;2023-04-24T05:26:20;12.85;;;5.97;;
78406;SDS011;67692;51.074;-1.790;2023-04-24T05:28:47;12.07;;;5.43;;
78406;SDS011;67692;51.074;-1.790;2023-04-24T05:31:14;14.23;;;5.80;;
78406;SDS011;67692;51.074;-1.790;2023-04-24T05:33:42;15.48;;;6.07;;
78406;SDS011;67692;51.074;-1.790;2023-04-24T05:36:09;14.50;;;6.25;;
78406;SDS011;67692;51.074;-1.790;2023-04-24T05:38:36;13.60;;;6.68;;
78406;SDS011;67692;51.074;-1.790;2023-04-24T05:41:04;10.60;;;5.65;;
78406;SDS011;67692;51.074;-1.790;2023-04-24T05:43:31;12.95;;;5.90;;
78406;SDS011;67692;51.074;-1.790;2023-04-24T05:45:57;14.50;;;6.22;;
78406;SDS011;67692;51.074;-1.790;2023-04-24T05:48:24;17.33;;;6.55;;
78406;SDS011;67692;51.074;-1.790;2023-04-24T05:50:51;12.50;;;5.88;;
78406;SDS011;67692;51.074;-1.790;2023-04-24T05:53:18;12.90;;;5.78;;
78406;SDS011;67692;51.074;-1.790;2023-04-24T05:55:44;14.57;;;6.45;;
78406;SDS011;67692;51.074;-1.790;2023-04-24T05:58:12;14.85;;;5.85;;
78406;SDS011;67692;51.074;-1.790;2023-04-24T06:00:39;13.80;;;5.22;;
78406;SDS011;67692;51.074;-1.790;2023-04-24T06:03:07;15.00;;;5.72;;
78406;SDS011;67692;51.074;-1.790;2023-04-24T06:05:34;15.38;;;6.40;;
78406;SDS011;67692;51.074;-1.790;2023-04-24T06:08:01;11.85;;;6.00;;
78406;SDS011;67692;51.074;-1.790;2023-04-24T06:10:27;12.50;;;6.30;;
78406;SDS011;67692;51.074;-1.790;2023-04-24T06:12:54;11.63;;;5.85;;
78406;SDS011;67692;51.074;-1.790;2023-04-24T06:15:26;11.43;;;5.65;;
78406;SDS011;67692;51.074;-1.790;2023-04-24T06:17:55;11.48;;;5.57;;
78406;SDS011;67692;51.074;-1.790;2023-04-24T06:20:22;14.32;;;5.35;;
78406;SDS011;67692;51.074;-1.790;2023-04-24T06:22:49;14.90;;;6.18;;
78406;SDS011;67692;51.074;-1.790;2023-04-24T06:25:16;13.02;;;6.47;;
78406;SDS011;67692;51.074;-1.790;2023-04-24T06:27:42;13.18;;;6.55;;
78406;SDS011;67692;51.074;-1.790;2023-04-24T06:30:09;12.25;;;5.47;;
78406;SDS011;67692;51.074;-1.790;2023-04-24T06:32:37;11.68;;;5.63;;
78406;SDS011;67692;51.074;-1.790;2023-04-24T06:35:05;13.07;;;5.80;;
78406;SDS011;67692;51.074;-1.790;2023-04-24T06:37:33;14.30;;;6.28;;
78406;SDS011;67692;51.074;-1.790;2023-04-24T06:39:59;10.90;;;5.78;;
78406;SDS011;67692;51.074;-1.790;2023-04-24T06:42:26;11.15;;;5.68;;
78406;SDS011;67692;51.074;-1.790;2023-04-24T06:44:53;17.08;;;6.15;;
78406;SDS011;67692;51.074;-1.790;2023-04-24T06:47:19;11.90;;;5.43;;
78406;SDS011;67692;51.074;-1.790;2023-04-24T06:49:47;15.95;;;5.97;;
78406;SDS011;67692;51.074;-1.790;2023-04-24T06:52:15;11.82;;;5.97;;
78406;SDS011;67692;51.074;-1.790;2023-04-24T06:54:42;15.68;;;6.30;;
78406;SDS011;67692;51.074;-1.790;2023-04-24T06:57:09;13.07;;;5.60;;
78406;SDS011;67692;51.074;-1.790;2023-04-24T06:59:36;11.90;;;5.63;;
78406;SDS011;67692;51.074;-1.790;2023-04-24T07:02:03;12.95;;;5.80;;
78406;SDS011;67692;51.074;-1.790;2023-04-24T07:04:29;14.10;;;6.13;;
78406;SDS011;67692;51.074;-1.790;2023-04-24T07:06:58;12.57;;;6.38;;
78406;SDS011;67692;51.074;-1.790;2023-04-24T07:09:25;13.10;;;6.30;;
78406;SDS011;67692;51.074;-1.790;2023-04-24T07:11:52;18.27;;;6.50;;
78406;SDS011;67692;51.074;-1.790;2023-04-24T07:14:19;15.43;;;6.57;;
78406;SDS011;67692;51.074;-1.790;2023-04-24T07:16:46;10.40;;;6.00;;
78406;SDS011;67692;51.074;-1.790;2023-04-24T07:19:12;15.30;;;6.95;;
78406;SDS011;67692;51.074;-1.790;2023-04-24T07:21:39;12.70;;;6.03;;
78406;SDS011;67692;51.074;-1.790;2023-04-24T07:24:08;13.13;;;6.38;;
78406;SDS011;67692;51.074;-1.790;2023-04-24T07:26:36;11.38;;;5.97;;
78406;SDS011;67692;51.074;-1.790;2023-04-24T07:29:03;18.65;;;6.95;;
78406;SDS011;67692;51.074;-1.790;2023-04-24T07:31:30;12.68;;;6.32;;
78406;SDS011;67692;51.074;-1.790;2023-04-24T07:33:57;13.50;;;6.38;;
78406;SDS011;67692;51.074;-1.790;2023-04-24T07:36:24;14.73;;;6.18;;
78406;SDS011;67692;51.074;-1.790;2023-04-24T07:38:51;12.82;;;6.45;;
78406;SDS011;67692;51.074;-1.790;2023-04-24T07:41:19;14.45;;;6.13;;
78406;SDS011;67692;51.074;-1.790;2023-04-24T07:43:46;13.30;;;7.20;;
78406;SDS011;67692;51.074;-1.790;2023-04-24T07:46:13;15.32;;;5.47;;
78406;SDS011;67692;51.074;-1.790;2023-04-24T07:48:39;15.57;;;6.32;;
78406;SDS011;67692;51.074;-1.790;2023-04-24T07:51:06;15.18;;;6.85;;
78406;SDS011;67692;51.074;-1.790;2023-04-24T07:53:35;13.48;;;6.20;;
78406;SDS011;67692;51.074;-1.790;2023-04-24T07:56:01;11.77;;;6.10;;
78406;SDS011;67692;51.074;-1.790;2023-04-24T07:58:29;13.02;;;6.03;;
78406;SDS011;67692;51.074;-1.790;2023-04-24T08:00:56;13.00;;;5.10;;
78406;SDS011;67692;51.074;-1.790;2023-04-24T08:03:23;12.20;;;5.53;;
78406;SDS011;67692;51.074;-1.790;2023-04-24T08:05:49;12.95;;;6.28;;
78406;SDS011;67692;51.074;-1.790;2023-04-24T08:08:17;10.93;;;5.13;;
78406;SDS011;67692;51.074;-1.790;2023-04-24T08:10:44;14.60;;;6.20;;
78406;SDS011;67692;51.074;-1.790;2023-04-24T08:13:10;14.00;;;5.88;;
78406;SDS011;67692;51.074;-1.790;2023-04-24T08:15:38;13.50;;;6.07;;
78406;SDS011;67692;51.074;-1.790;2023-04-24T08:18:05;15.35;;;6.03;;
78406;SDS011;67692;51.074;-1.790;2023-04-24T08:20:32;12.30;;;6.32;;
78406;SDS011;67692;51.074;-1.790;2023-04-24T08:22:58;11.20;;;5.97;;
78406;SDS011;67692;51.074;-1.790;2023-04-24T08:25:25;12.82;;;6.13;;
78406;SDS011;67692;51.074;-1.790;2023-04-24T08:27:52;10.50;;;5.20;;
78406;SDS011;67692;51.074;-1.790;2023-04-24T08:30:19;11.88;;;5.30;;
78406;SDS011;67692;51.074;-1.790;2023-04-24T08:32:47;11.50;;;5.57;;
78406;SDS011;67692;51.074;-1.790;2023-04-24T08:35:14;14.00;;;5.90;;
78406;SDS011;67692;51.074;-1.790;2023-04-24T08:37:40;11.45;;;6.28;;
78406;SDS011;67692;51.074;-1.790;2023-04-24T08:40:10;10.88;;;5.55;;
78406;SDS011;67692;51.074;-1.790;2023-04-24T08:42:40;12.38;;;6.05;;
78406;SDS011;67692;51.074;-1.790;2023-04-24T08:45:08;18.52;;;6.90;;
78406;SDS011;67692;51.074;-1.790;2023-04-24T08:47:36;16.05;;;6.45;;
78406;SDS011;67692;51.074;-1.790;2023-04-24T08:50:06;15.40;;;6.32;;
78406;SDS011;67692;51.074;-1.790;2023-04-24T08:52:33;13.95;;;7.25;;
78406;SDS011;67692;51.074;-1.790;2023-04-24T08:55:01;13.68;;;6.78;;
78406;SDS011;67692;51.074;-1.790;2023-04-24T08:57:27;15.13;;;6.57;;
78406;SDS011;67692;51.074;-1.790;2023-04-24T08:59:56;18.48;;;6.57;;
78406;SDS011;67692;51.074;-1.790;2023-04-24T09:02:23;13.68;;;6.50;;
78406;SDS011;67692;51.074;-1.790;2023-04-24T09:04:51;13.15;;;6.53;;
78406;SDS011;67692;51.074;-1.790;2023-04-24T09:07:20;11.82;;;6.28;;
78406;SDS011;67692;51.074;-1.790;2023-04-24T09:09:50;14.60;;;6.65;;
78406;SDS011;67692;51.074;-1.790;2023-04-24T09:12:18;14.55;;;6.13;;
78406;SDS011;67692;51.074;-1.790;2023-04-24T09:14:45;13.25;;;7.00;;
78406;SDS011;67692;51.074;-1.790;2023-04-24T09:17:12;12.43;;;6.13;;
78406;SDS011;67692;51.074;-1.790;2023-04-24T09:19:39;11.88;;;6.25;;
78406;SDS011;67692;51.074;-1.790;2023-04-24T09:22:06;11.93;;;6.10;;
78406;SDS011;67692;51.074;-1.790;2023-04-24T09:24:35;10.38;;;5.75;;
78406;SDS011;67692;51.074;-1.790;2023-04-24T09:27:02;11.57;;;5.47;;
78406;SDS011;67692;51.074;-1.790;2023-04-24T09:29:30;10.90;;;5.50;;
78406;SDS011;67692;51.074;-1.790;2023-04-24T09:31:57;10.40;;;5.93;;
78406;SDS011;67692;51.074;-1.790;2023-04-24T09:34:25;10.82;;;5.95;;
78406;SDS011;67692;51.074;-1.790;2023-04-24T09:36:53;10.15;;;6.10;;
78406;SDS011;67692;51.074;-1.790;2023-04-24T09:39:20;9.90;;;5.60;;
78406;SDS011;67692;51.074;-1.790;2023-04-24T09:41:49;13.93;;;5.95;;
78406;SDS011;67692;51.074;-1.790;2023-04-24T09:44:17;10.85;;;5.07;;
78406;SDS011;67692;51.074;-1.790;2023-04-24T09:46:49;10.55;;;4.93;;
78406;SDS011;67692;51.074;-1.790;2023-04-24T09:49:21;8.57;;;4.10;;
78406;SDS011;67692;51.074;-1.790;2023-04-24T09:51:49;7.80;;;3.55;;
78406;SDS011;67692;51.074;-1.790;2023-04-24T09:54:16;8.43;;;4.20;;
78406;SDS011;67692;51.074;-1.790;2023-04-24T09:56:45;8.80;;;3.97;;
78406;SDS011;67692;51.074;-1.790;2023-04-24T09:59:14;9.18;;;3.50;;
78406;SDS011;67692;51.074;-1.790;2023-04-24T10:01:41;11.35;;;4.20;;
78406;SDS011;67692;51.074;-1.790;2023-04-24T10:04:15;8.63;;;4.25;;
78406;SDS011;67692;51.074;-1.790;2023-04-24T10:06:43;8.98;;;4.20;;
78406;SDS011;67692;51.074;-1.790;2023-04-24T10:09:10;8.15;;;3.95;;
78406;SDS011;67692;51.074;-1.790;2023-04-24T10:11:39;7.13;;;3.42;;
78406;SDS011;67692;51.074;-1.790;2023-04-24T10:14:09;10.23;;;4.03;;
78406;SDS011;67692;51.074;-1.790;2023-04-24T10:16:38;8.82;;;3.97;;
78406;SDS011;67692;51.074;-1.790;2023-04-24T10:19:06;10.10;;;4.10;;
78406;SDS011;67692;51.074;-1.790;2023-04-24T10:21:34;9.98;;;4.35;;
78406;SDS011;67692;51.074;-1.790;2023-04-24T10:24:01;8.73;;;4.00;;
78406;SDS011;67692;51.074;-1.790;2023-04-24T10:26:29;7.85;;;3.80;;
78406;SDS011;67692;51.074;-1.790;2023-04-24T10:28:57;9.32;;;4.28;;
78406;SDS011;67692;51.074;-1.790;2023-04-24T10:31:24;8.18;;;3.72;;
78406;SDS011;67692;51.074;-1.790;2023-04-24T10:33:53;9.10;;;4.00;;
78406;SDS011;67692;51.074;-1.790;2023-04-24T10:36:21;9.48;;;4.10;;
78406;SDS011;67692;51.074;-1.790;2023-04-24T10:38:51;11.80;;;4.57;;
78406;SDS011;67692;51.074;-1.790;2023-04-24T10:41:20;8.95;;;4.35;;
78406;SDS011;67692;51.074;-1.790;2023-04-24T10:43:48;9.93;;;3.90;;
78406;SDS011;67692;51.074;-1.790;2023-04-24T10:46:16;9.18;;;4.15;;
78406;SDS011;67692;51.074;-1.790;2023-04-24T10:48:51;9.50;;;4.63;;
78406;SDS011;67692;51.074;-1.790;2023-04-24T10:51:21;8.48;;;4.55;;
78406;SDS011;67692;51.074;-1.790;2023-04-24T10:53:49;9.27;;;4.32;;
78406;SDS011;67692;51.074;-1.790;2023-04-24T10:56:16;13.43;;;5.43;;
78406;SDS011;67692;51.074;-1.790;2023-04-24T10:58:44;10.52;;;4.65;;
78406;SDS011;67692;51.074;-1.790;2023-04-24T11:01:22;15.15;;;5.57;;
78406;SDS011;67692;51.074;-1.790;2023-04-24T11:03:53;10.48;;;4.78;;
78406;SDS011;67692;51.074;-1.790;2023-04-24T11:06:28;9.50;;;5.03;;
78406;SDS011;67692;51.074;-1.790;2023-04-24T11:08:59;9.80;;;5.50;;
78406;SDS011;67692;51.074;-1.790;2023-04-24T11:11:29;13.68;;;5.75;;
78406;SDS011;67692;51.074;-1.790;2023-04-24T11:14:03;10.75;;;5.22;;
78406;SDS011;67692;51.074;-1.790;2023-04-24T11:16:32;10.35;;;4.97;;
78406;SDS011;67692;51.074;-1.790;2023-04-24T11:19:01;9.43;;;4.47;;
78406;SDS011;67692;51.074;-1.790;2023-04-24T11:21:38;10.20;;;5.00;;
78406;SDS011;67692;51.074;-1.790;2023-04-24T11:24:26;9.02;;;4.95;;
78406;SDS011;67692;51.074;-1.790;2023-04-24T11:26:56;8.15;;;4.47;;
78406;SDS011;67692;51.074;-1.790;2023-04-24T11:29:37;9.02;;;4.60;;
78406;SDS011;67692;51.074;-1.790;2023-04-24T11:32:14;11.32;;;4.22;;
78406;SDS011;67692;51.074;-1.790;2023-04-24T11:34:47;9.15;;;4.18;;
78406;SDS011;67692;51.074;-1.790;2023-04-24T11:39:42;9.88;;;4.70;;
78406;SDS011;67692;51.074;-1.790;2023-04-24T11:42:09;13.07;;;5.88;;
78406;SDS011;67692;51.074;-1.790;2023-04-24T11:44:35;12.05;;;5.57;;
78406;SDS011;67692;51.074;-1.790;2023-04-24T11:47:03;10.18;;;4.43;;
78406;SDS011;67692;51.074;-1.790;2023-04-24T11:49:30;9.27;;;5.05;;
78406;SDS011;67692;51.074;-1.790;2023-04-24T11:51:58;7.13;;;2.40;;
78406;SDS011;67692;51.074;-1.790;2023-04-24T11:54:26;5.78;;;2.13;;
78406;SDS011;67692;51.074;-1.790;2023-04-24T11:56:52;6.43;;;2.38;;
78406;SDS011;67692;51.074;-1.790;2023-04-24T11:59:19;7.70;;;2.00;;
78406;SDS011;67692;51.074;-1.790;2023-04-24T12:01:46;4.15;;;1.80;;
78406;SDS011;67692;51.074;-1.790;2023-04-24T12:04:13;4.22;;;1.45;;
78406;SDS011;67692;51.074;-1.790;2023-04-24T12:09:27;8.52;;;2.50;;
78406;SDS011;67692;51.074;-1.790;2023-04-24T12:11:53;4.57;;;1.70;;
78406;SDS011;67692;51.074;-1.790;2023-04-24T12:14:21;7.32;;;2.10;;
78406;SDS011;67692;51.074;-1.790;2023-04-24T12:16:48;3.38;;;1.70;;
78406;SDS011;67692;51.074;-1.790;2023-04-24T12:19:17;3.95;;;1.73;;
78406;SDS011;67692;51.074;-1.790;2023-04-24T12:21:58;5.68;;;1.45;;
78406;SDS011;67692;51.074;-1.790;2023-04-24T12:24:27;4.60;;;1.60;;
78406;SDS011;67692;51.074;-1.790;2023-04-24T12:26:54;4.65;;;1.73;;
78406;SDS011;67692;51.074;-1.790;2023-04-24T12:29:21;3.28;;;1.50;;
78406;SDS011;67692;51.074;-1.790;2023-04-24T12:31:49;4.05;;;1.73;;
78406;SDS011;67692;51.074;-1.790;2023-04-24T12:34:17;2.33;;;1.15;;
78406;SDS011;67692;51.074;-1.790;2023-04-24T12:36:45;4.88;;;1.42;;
78406;SDS011;67692;51.074;-1.790;2023-04-24T12:39:15;5.05;;;1.77;;
78406;SDS011;67692;51.074;-1.790;2023-04-24T12:41:50;3.40;;;1.27;;
78406;SDS011;67692;51.074;-1.790;2023-04-24T12:44:17;3.78;;;1.40;;
78406;SDS011;67692;51.074;-1.790;2023-04-24T12:46:44;3.33;;;1.30;;
78406;SDS011;67692;51.074;-1.790;2023-04-24T12:49:10;3.22;;;1.50;;
78406;SDS011;67692;51.074;-1.790;2023-04-24T12:51:37;3.33;;;1.65;;
78406;SDS011;67692;51.074;-1.790;2023-04-24T12:54:03;4.68;;;1.60;;
78406;SDS011;67692;51.074;-1.790;2023-04-24T12:56:32;5.85;;;1.52;;
78406;SDS011;67692;51.074;-1.790;2023-04-24T12:58:59;4.47;;;2.05;;
78406;SDS011;67692;51.074;-1.790;2023-04-24T13:01:26;5.28;;;1.88;;
78406;SDS011;67692;51.074;-1.790;2023-04-24T13:03:52;4.95;;;1.90;;
78406;SDS011;67692;51.074;-1.790;2023-04-24T13:06:19;5.63;;;1.70;;
78406;SDS011;67692;51.074;-1.790;2023-04-24T13:08:46;3.92;;;1.80;;
78406;SDS011;67692;51.074;-1.790;2023-04-24T13:11:13;3.42;;;1.40;;
78406;SDS011;67692;51.074;-1.790;2023-04-24T13:13:41;7.78;;;2.20;;
78406;SDS011;67692;51.074;-1.790;2023-04-24T13:16:08;6.82;;;2.20;;
78406;SDS011;67692;51.074;-1.790;2023-04-24T13:18:34;6.22;;;2.38;;
78406;SDS011;67692;51.074;-1.790;2023-04-24T13:21:01;5.18;;;1.98;;
78406;SDS011;67692;51.074;-1.790;2023-04-24T13:23:28;6.50;;;2.50;;
78406;SDS011;67692;51.074;-1.790;2023-04-24T13:25:54;4.88;;;1.90;;
78406;SDS011;67692;51.074;-1.790;2023-04-24T13:28:23;4.22;;;1.95;;
78406;SDS011;67692;51.074;-1.790;2023-04-24T13:30:52;5.57;;;2.22;;
78406;SDS011;67692;51.074;-1.790;2023-04-24T13:33:18;5.30;;;2.25;;
78406;SDS011;67692;51.074;-1.790;2023-04-24T13:35:45;8.95;;;2.40;;
78406;SDS011;67692;51.074;-1.790;2023-04-24T13:38:11;6.13;;;2.40;;
78406;SDS011;67692;51.074;-1.790;2023-04-24T13:40:38;4.68;;;1.75;;
78406;SDS011;67692;51.074;-1.790;2023-04-24T13:43:05;6.75;;;2.20;;
78406;SDS011;67692;51.074;-1.790;2023-04-24T13:45:31;8.07;;;3.53;;
78406;SDS011;67692;51.074;-1.790;2023-04-24T13:47:59;7.90;;;2.75;;
78406;SDS011;67692;51.074;-1.790;2023-04-24T13:50:28;9.52;;;3.00;;
78406;SDS011;67692;51.074;-1.790;2023-04-24T13:52:54;17.75;;;5.28;;
78406;SDS011;67692;51.074;-1.790;2023-04-24T13:55:21;10.77;;;3.58;;
78406;SDS011;67692;51.074;-1.790;2023-04-24T13:57:48;14.80;;;5.53;;
78406;SDS011;67692;51.074;-1.790;2023-04-24T14:00:15;10.70;;;3.97;;
78406;SDS011;67692;51.074;-1.790;2023-04-24T14:02:42;7.38;;;2.88;;
78406;SDS011;67692;51.074;-1.790;2023-04-24T14:05:10;10.82;;;4.68;;
78406;SDS011;67692;51.074;-1.790;2023-04-24T14:07:37;7.30;;;1.85;;
78406;SDS011;67692;51.074;-1.790;2023-04-24T14:10:04;4.25;;;2.08;;
78406;SDS011;67692;51.074;-1.790;2023-04-24T14:12:31;5.93;;;2.50;;
78406;SDS011;67692;51.074;-1.790;2023-04-24T14:14:58;8.52;;;2.08;;
78406;SDS011;67692;51.074;-1.790;2023-04-24T14:17:26;4.63;;;2.00;;
78406;SDS011;67692;51.074;-1.790;2023-04-24T14:19:53;3.78;;;1.77;;
78406;SDS011;67692;51.074;-1.790;2023-04-24T14:22:22;4.45;;;1.80;;
78406;SDS011;67692;51.074;-1.790;2023-04-24T14:24:49;4.70;;;1.60;;
78406;SDS011;67692;51.074;-1.790;2023-04-24T14:27:15;4.90;;;1.55;;
78406;SDS011;67692;51.074;-1.790;2023-04-24T14:29:42;3.42;;;1.45;;
78406;SDS011;67692;51.074;-1.790;2023-04-24T14:32:10;3.67;;;1.67;;
78406;SDS011;67692;51.074;-1.790;2023-04-24T14:34:36;4.00;;;1.60;;